Terminal Aerodrome Forecast
Issued by NWS Portland, OR

Home | Current Version | Previous Version | Text Only | Print | Product List | Glossary On
Versions: 1 2 3 4 5 6 7 8 9 10 11 12 13 14 15 16 17 18 19 20
000
FTUS46 KPQR 172334
TAFHIO
TAF
KHIO 172334Z 1800/1824 VRB03KT P6SM VCSH SCT025 BKN050
     FM181600 30001KT 1/2SM FG OVC003
     FM181800 15002KT 4SM BR OVC003
     FM182000 16003KT 6SM BR OVC050
     FM182100 VRB03KT P6SM FEW050=

USA.gov is the U.S. government's official web portal to all federal, state and local government web resources and services.